createdAt,value
2018-02-04T00:00:06.294Z,969.87
2018-02-04T00:01:06.210Z,969.89
2018-02-04T00:02:06.126Z,969.91
2018-02-04T00:03:06.039Z,969.93
2018-02-04T00:04:05.954Z,969.93
2018-02-04T00:05:05.870Z,969.98
2018-02-04T00:06:05.783Z,969.99
2018-02-04T00:07:05.698Z,969.99
2018-02-04T00:08:05.611Z,969.98
2018-02-04T00:09:05.526Z,970.00
2018-02-04T00:10:05.440Z,969.96
2018-02-04T00:11:05.355Z,969.96
2018-02-04T00:12:05.269Z,969.98
2018-02-04T00:13:05.185Z,969.99
2018-02-04T00:14:05.098Z,969.98
2018-02-04T00:15:05.012Z,970.02
2018-02-04T00:16:04.936Z,970.00
2018-02-04T00:17:04.842Z,970.00
2018-02-04T00:18:04.776Z,970.04
2018-02-04T00:19:04.672Z,969.98
2018-02-04T00:20:04.587Z,969.99
2018-02-04T00:21:04.500Z,970.00
2018-02-04T00:22:04.418Z,970.03
2018-02-04T00:23:04.331Z,970.04
2018-02-04T00:24:04.244Z,970.05
2018-02-04T00:25:04.156Z,970.09
2018-02-04T00:26:04.071Z,970.11
2018-02-04T00:27:03.990Z,970.11
2018-02-04T00:28:03.903Z,970.08
2018-02-04T00:29:03.818Z,970.11
2018-02-04T00:30:03.739Z,970.10
2018-02-04T00:31:03.646Z,970.14
2018-02-04T00:32:03.559Z,970.12
2018-02-04T00:33:03.472Z,970.14
2018-02-04T00:34:03.397Z,970.13
2018-02-04T00:35:03.304Z,970.15
2018-02-04T00:36:03.215Z,970.18
2018-02-04T00:37:03.133Z,970.17
2018-02-04T00:38:03.070Z,970.21
2018-02-04T00:39:02.977Z,970.20
2018-02-04T00:40:02.877Z,970.21
2018-02-04T00:41:02.789Z,970.23
2018-02-04T00:42:02.703Z,970.22
2018-02-04T00:43:02.620Z,970.23
2018-02-04T00:44:02.532Z,970.23
2018-02-04T00:45:02.448Z,970.23
2018-02-04T00:46:02.362Z,970.25
2018-02-04T00:47:02.279Z,970.24
2018-02-04T00:48:02.191Z,970.23
2018-02-04T00:49:02.119Z,970.20
2018-02-04T00:50:02.020Z,970.21
2018-02-04T00:51:01.936Z,970.24
2018-02-04T00:52:01.848Z,970.22
2018-02-04T00:53:01.816Z,970.25
2018-02-04T00:54:01.679Z,970.27
2018-02-04T00:55:01.592Z,970.28
2018-02-04T00:56:01.507Z,970.29
2018-02-04T00:57:01.428Z,970.30
2018-02-04T00:58:01.336Z,970.29
2018-02-04T00:59:01.250Z,970.30
2018-02-04T01:00:01.177Z,970.28
2018-02-04T01:01:01.081Z,970.34
2018-02-04T01:02:01.002Z,970.32
2018-02-04T01:03:00.910Z,970.32
2018-02-04T01:04:00.826Z,970.34
2018-02-04T01:05:00.738Z,970.39
2018-02-04T01:06:00.654Z,970.37
2018-02-04T01:07:00.566Z,970.39
2018-02-04T01:08:00.482Z,970.37
2018-02-04T01:09:00.400Z,970.38
2018-02-04T01:10:00.312Z,970.41
2018-02-04T01:11:00.226Z,970.45
2018-02-04T01:12:00.142Z,970.45
2018-02-04T01:13:00.054Z,970.50
2018-02-04T01:13:59.973Z,970.50
2018-02-04T01:14:59.885Z,970.50
2018-02-04T01:15:59.797Z,970.52
2018-02-04T01:16:59.712Z,970.51
2018-02-04T01:17:59.631Z,970.52
2018-02-04T01:18:59.556Z,970.53
2018-02-04T01:19:59.457Z,970.54
2018-02-04T01:20:59.372Z,970.56
2018-02-04T01:21:59.285Z,970.56
2018-02-04T01:22:59.200Z,970.55
2018-02-04T01:23:59.114Z,970.57
2018-02-04T01:24:59.038Z,970.56
2018-02-04T01:25:58.944Z,970.62
2018-02-04T01:26:58.860Z,970.64
2018-02-04T01:27:58.790Z,970.66
2018-02-04T01:28:58.695Z,970.63
2018-02-04T01:29:58.611Z,970.64
2018-02-04T01:30:58.516Z,970.68
2018-02-04T01:31:58.430Z,970.70
2018-02-04T01:32:58.347Z,970.68
2018-02-04T01:33:58.261Z,970.67
2018-02-04T01:34:58.178Z,970.70
2018-02-04T01:35:58.089Z,970.67
2018-02-04T01:36:58.004Z,970.71
2018-02-04T01:37:57.921Z,970.65
2018-02-04T01:38:57.832Z,970.67
2018-02-04T01:39:57.747Z,970.68
2018-02-04T01:40:57.662Z,970.68
2018-02-04T01:41:57.577Z,970.64
2018-02-04T01:42:57.490Z,970.63
2018-02-04T01:43:57.404Z,970.64
2018-02-04T01:44:57.321Z,970.63
2018-02-04T01:45:57.235Z,970.62
2018-02-04T01:46:57.148Z,970.66
2018-02-04T01:47:57.064Z,970.68
2018-02-04T01:48:56.977Z,970.65
2018-02-04T01:49:56.908Z,970.65
2018-02-04T01:50:56.808Z,970.69
2018-02-04T01:51:56.722Z,970.69
2018-02-04T01:52:56.637Z,970.64
2018-02-04T01:53:56.558Z,970.67
2018-02-04T01:54:56.463Z,970.71
2018-02-04T01:55:56.380Z,970.73
2018-02-04T01:56:56.318Z,970.69
2018-02-04T01:57:56.209Z,970.72
2018-02-04T01:58:56.123Z,970.72
2018-02-04T01:59:56.040Z,970.71
2018-02-04T02:00:55.954Z,970.71
2018-02-04T02:01:55.870Z,970.70
2018-02-04T02:02:55.781Z,970.74
2018-02-04T02:03:55.696Z,970.76
2018-02-04T02:04:55.612Z,970.74
2018-02-04T02:05:55.527Z,970.78
2018-02-04T02:06:55.451Z,970.75
2018-02-04T02:07:55.368Z,970.80
2018-02-04T02:08:55.270Z,970.80
2018-02-04T02:09:55.184Z,970.79
2018-02-04T02:10:55.099Z,970.80
2018-02-04T02:11:55.013Z,970.79
2018-02-04T02:12:54.928Z,970.74
2018-02-04T02:13:54.843Z,970.77
2018-02-04T02:14:54.756Z,970.77
2018-02-04T02:15:54.672Z,970.81
2018-02-04T02:16:54.587Z,970.81
2018-02-04T02:17:54.507Z,970.82
2018-02-04T02:18:54.417Z,970.88
2018-02-04T02:19:54.331Z,970.88
2018-02-04T02:20:54.247Z,970.85
2018-02-04T02:21:54.160Z,970.86
2018-02-04T02:22:54.073Z,970.88
2018-02-04T02:23:53.989Z,970.85
2018-02-04T02:24:53.904Z,970.90
2018-02-04T02:25:53.819Z,970.90
2018-02-04T02:26:53.732Z,970.87
2018-02-04T02:27:53.647Z,970.86
2018-02-04T02:28:53.620Z,970.90
2018-02-04T02:29:53.477Z,970.93
2018-02-04T02:30:53.390Z,970.92
2018-02-04T02:31:53.307Z,970.91
2018-02-04T02:32:53.221Z,970.93
2018-02-04T02:33:53.137Z,970.89
2018-02-04T02:34:53.048Z,970.94
2018-02-04T02:35:52.964Z,970.95
2018-02-04T02:36:52.877Z,970.98
2018-02-04T02:37:52.793Z,970.97
2018-02-04T02:38:52.706Z,971.02
2018-02-04T02:39:52.623Z,971.02
2018-02-04T02:40:52.536Z,971.04
2018-02-04T02:41:52.450Z,971.09
2018-02-04T02:42:52.364Z,971.08
2018-02-04T02:43:52.279Z,971.10
2018-02-04T02:44:52.194Z,971.11
2018-02-04T02:45:52.109Z,971.12
2018-02-04T02:46:52.022Z,971.12
2018-02-04T02:47:51.936Z,971.12
2018-02-04T02:48:51.853Z,971.10
2018-02-04T02:49:51.776Z,971.14
2018-02-04T02:50:51.684Z,971.14
2018-02-04T02:51:51.597Z,971.14
2018-02-04T02:52:51.509Z,971.13
2018-02-04T02:53:51.427Z,971.12
2018-02-04T02:54:51.338Z,971.12
2018-02-04T02:55:51.257Z,971.14
2018-02-04T02:56:51.176Z,971.12
2018-02-04T02:57:51.104Z,971.13
2018-02-04T02:58:51.018Z,971.11
2018-02-04T02:59:50.911Z,971.14
2018-02-04T03:00:50.826Z,971.15
2018-02-04T03:01:50.740Z,971.15
2018-02-04T03:02:50.654Z,971.16
2018-02-04T03:03:50.567Z,971.19
2018-02-04T03:04:50.487Z,971.18
2018-02-04T03:05:50.397Z,971.18
2018-02-04T03:06:50.313Z,971.19
2018-02-04T03:07:50.227Z,971.18
2018-02-04T03:08:50.141Z,971.21
2018-02-04T03:09:50.063Z,971.23
2018-02-04T03:10:49.967Z,971.24
2018-02-04T03:11:49.885Z,971.25
2018-02-04T03:12:49.797Z,971.27
2018-02-04T03:13:49.716Z,971.27
2018-02-04T03:14:49.625Z,971.30
2018-02-04T03:15:49.550Z,971.30
2018-02-04T03:16:49.456Z,971.31
2018-02-04T03:17:49.370Z,971.32
2018-02-04T03:18:49.285Z,971.31
2018-02-04T03:19:49.208Z,971.32
2018-02-04T03:20:49.113Z,971.32
2018-02-04T03:21:49.027Z,971.32
2018-02-04T03:22:48.939Z,971.39
2018-02-04T03:23:48.855Z,971.38
2018-02-04T03:24:48.769Z,971.38
2018-02-04T03:25:48.685Z,971.38
2018-02-04T03:26:48.612Z,971.41
2018-02-04T03:27:48.526Z,971.40
2018-02-04T03:28:48.436Z,971.41
2018-02-04T03:29:48.347Z,971.41
2018-02-04T03:30:48.258Z,971.43
2018-02-04T03:31:48.171Z,971.44
2018-02-04T03:32:48.085Z,971.46
2018-02-04T03:33:48.000Z,971.46
2018-02-04T03:34:47.912Z,971.45
2018-02-04T03:35:47.831Z,971.50
2018-02-04T03:36:47.743Z,971.50
2018-02-04T03:37:47.679Z,971.50
2018-02-04T03:38:47.586Z,971.54
2018-02-04T03:39:47.485Z,971.53
2018-02-04T03:40:47.399Z,971.54
2018-02-04T03:41:47.313Z,971.51
2018-02-04T03:42:47.253Z,971.55
2018-02-04T03:43:47.141Z,971.58
2018-02-04T03:44:47.057Z,971.59
2018-02-04T03:45:46.970Z,971.59
2018-02-04T03:46:46.886Z,971.65
2018-02-04T03:47:46.801Z,971.65
2018-02-04T03:48:46.715Z,971.63
2018-02-04T03:49:46.629Z,971.71
2018-02-04T03:50:46.543Z,971.69
2018-02-04T03:51:46.456Z,971.69
2018-02-04T03:52:46.371Z,971.70
2018-02-04T03:53:46.283Z,971.75
2018-02-04T03:54:46.197Z,971.74
2018-02-04T03:55:46.112Z,971.75
2018-02-04T03:56:46.026Z,971.76
2018-02-04T03:57:45.942Z,971.75
2018-02-04T03:58:45.859Z,971.80
2018-02-04T03:59:45.769Z,971.78
2018-02-04T04:00:45.688Z,971.78
2018-02-04T04:01:45.626Z,971.78
2018-02-04T04:02:45.512Z,971.79
2018-02-04T04:03:45.427Z,971.81
2018-02-04T04:04:45.339Z,971.80
2018-02-04T04:05:45.255Z,971.78
2018-02-04T04:06:45.178Z,971.81
2018-02-04T04:07:45.085Z,971.83
2018-02-04T04:08:44.999Z,971.84
2018-02-04T04:09:44.912Z,971.87
2018-02-04T04:10:44.825Z,971.86
2018-02-04T04:11:44.740Z,971.87
2018-02-04T04:12:44.659Z,971.85
2018-02-04T04:13:44.574Z,971.85
2018-02-04T04:14:44.484Z,971.90
2018-02-04T04:15:44.397Z,971.85
2018-02-04T04:16:44.311Z,971.88
2018-02-04T04:17:44.227Z,971.89
2018-02-04T04:18:44.140Z,971.87
2018-02-04T04:19:44.056Z,971.90
2018-02-04T04:20:43.976Z,971.95
2018-02-04T04:21:43.882Z,971.98
2018-02-04T04:22:43.803Z,971.99
2018-02-04T04:23:43.712Z,971.96
2018-02-04T04:24:43.627Z,971.96
2018-02-04T04:25:43.540Z,972.00
2018-02-04T04:26:43.454Z,972.02
2018-02-04T04:27:43.372Z,972.00
2018-02-04T04:28:43.288Z,972.04
2018-02-04T04:29:43.197Z,972.10
2018-02-04T04:30:43.118Z,972.08
2018-02-04T04:31:43.037Z,972.09
2018-02-04T04:32:42.942Z,972.07
2018-02-04T04:33:42.855Z,972.09
2018-02-04T04:34:42.768Z,972.14
2018-02-04T04:35:42.683Z,972.10
2018-02-04T04:36:42.596Z,972.14
2018-02-04T04:37:42.512Z,972.17
2018-02-04T04:38:42.431Z,972.13
2018-02-04T04:39:42.340Z,972.14
2018-02-04T04:40:42.253Z,972.16
2018-02-04T04:41:42.183Z,972.16
2018-02-04T04:42:42.082Z,972.15
2018-02-04T04:43:41.995Z,972.12
2018-02-04T04:44:41.911Z,972.15
2018-02-04T04:45:41.824Z,972.18
2018-02-04T04:46:41.739Z,972.16
2018-02-04T04:47:41.660Z,972.18
2018-02-04T04:48:41.567Z,972.16
2018-02-04T04:49:41.516Z,972.11
2018-02-04T04:50:41.413Z,972.15
2018-02-04T04:51:41.312Z,972.13
2018-02-04T04:52:41.224Z,972.13
2018-02-04T04:53:41.141Z,972.11
2018-02-04T04:54:41.052Z,972.11
2018-02-04T04:55:40.967Z,972.14
2018-02-04T04:56:40.879Z,972.13
2018-02-04T04:57:40.801Z,972.16
2018-02-04T04:58:40.709Z,972.17
2018-02-04T04:59:40.623Z,972.17
2018-02-04T05:00:40.538Z,972.19
2018-02-04T05:01:40.471Z,972.22
2018-02-04T05:02:40.364Z,972.22
2018-02-04T05:03:40.282Z,972.18
2018-02-04T05:04:40.193Z,972.21
2018-02-04T05:05:40.107Z,972.21
2018-02-04T05:06:40.020Z,972.17
2018-02-04T05:07:39.945Z,972.18
2018-02-04T05:08:39.848Z,972.15
2018-02-04T05:09:39.766Z,972.17
2018-02-04T05:10:39.678Z,972.16
2018-02-04T05:11:39.591Z,972.13
2018-02-04T05:12:39.515Z,972.18
2018-02-04T05:13:39.419Z,972.14
2018-02-04T05:14:39.337Z,972.15
2018-02-04T05:15:39.248Z,972.21
2018-02-04T05:16:39.164Z,972.20
2018-02-04T05:17:39.075Z,972.19
2018-02-04T05:18:38.993Z,972.22
2018-02-04T05:19:38.926Z,972.20
2018-02-04T05:20:38.821Z,972.21
2018-02-04T05:21:38.743Z,972.25
2018-02-04T05:22:38.650Z,972.23
2018-02-04T05:23:38.572Z,972.22
2018-02-04T05:24:38.474Z,972.24
2018-02-04T05:25:38.396Z,972.24
2018-02-04T05:26:38.302Z,972.20
2018-02-04T05:27:38.218Z,972.20
2018-02-04T05:28:38.131Z,972.20
2018-02-04T05:29:38.044Z,972.25
2018-02-04T05:30:37.957Z,972.27
2018-02-04T05:31:37.869Z,972.24
2018-02-04T05:32:37.786Z,972.28
2018-02-04T05:33:37.701Z,972.31
2018-02-04T05:34:37.615Z,972.35
2018-02-04T05:35:37.526Z,972.35
2018-02-04T05:36:37.446Z,972.36
2018-02-04T05:37:37.356Z,972.37
2018-02-04T05:38:37.268Z,972.38
2018-02-04T05:39:37.189Z,972.40
2018-02-04T05:40:37.098Z,972.39
2018-02-04T05:41:37.011Z,972.39
2018-02-04T05:42:36.948Z,972.39
2018-02-04T05:43:36.857Z,972.41
2018-02-04T05:44:36.761Z,972.44
2018-02-04T05:45:36.671Z,972.44
2018-02-04T05:46:36.583Z,972.44
2018-02-04T05:47:36.494Z,972.44
2018-02-04T05:48:36.410Z,972.50
2018-02-04T05:49:36.323Z,972.45
2018-02-04T05:50:36.237Z,972.53
2018-02-04T05:51:36.151Z,972.51
2018-02-04T05:52:36.064Z,972.55
2018-02-04T05:53:35.978Z,972.55
2018-02-04T05:54:35.900Z,972.57
2018-02-04T05:55:35.805Z,972.60
2018-02-04T05:56:35.768Z,972.58
2018-02-04T05:57:35.634Z,972.60
2018-02-04T05:58:35.546Z,972.67
2018-02-04T05:59:35.462Z,972.70
2018-02-04T06:00:35.375Z,972.69
2018-02-04T06:01:35.295Z,972.71
2018-02-04T06:02:35.204Z,972.78
2018-02-04T06:03:35.117Z,972.75
2018-02-04T06:04:35.029Z,972.82
2018-02-04T06:05:34.946Z,972.82
2018-02-04T06:06:34.856Z,972.87
2018-02-04T06:07:34.775Z,972.92
2018-02-04T06:08:34.688Z,972.95
2018-02-04T06:09:34.604Z,972.95
2018-02-04T06:10:34.513Z,972.97
2018-02-04T06:11:34.432Z,973.03
2018-02-04T06:12:34.342Z,973.05
2018-02-04T06:13:34.255Z,973.09
2018-02-04T06:14:34.168Z,973.09
2018-02-04T06:15:34.080Z,973.11
2018-02-04T06:16:34.003Z,973.10
2018-02-04T06:17:33.910Z,973.11
2018-02-04T06:18:33.827Z,973.10
2018-02-04T06:19:33.741Z,973.11
2018-02-04T06:20:33.674Z,973.14
2018-02-04T06:21:33.567Z,973.18
2018-02-04T06:22:33.479Z,973.18
2018-02-04T06:23:33.441Z,973.22
2018-02-04T06:24:33.307Z,973.21
2018-02-04T06:25:33.221Z,973.28
2018-02-04T06:26:33.134Z,973.25
2018-02-04T06:27:33.051Z,973.29
2018-02-04T06:28:32.965Z,973.32
2018-02-04T06:29:32.879Z,973.33
2018-02-04T06:30:32.791Z,973.38
2018-02-04T06:31:32.702Z,973.38
2018-02-04T06:32:32.633Z,973.37
2018-02-04T06:33:32.530Z,973.44
2018-02-04T06:34:32.451Z,973.40
2018-02-04T06:35:32.356Z,973.38
2018-02-04T06:36:32.271Z,973.42
2018-02-04T06:37:32.186Z,973.42
2018-02-04T06:38:32.105Z,973.43
2018-02-04T06:39:32.013Z,973.47
2018-02-04T06:40:31.925Z,973.45
2018-02-04T06:41:31.845Z,973.51
2018-02-04T06:42:31.749Z,973.52
2018-02-04T06:43:31.664Z,973.53
2018-02-04T06:44:31.579Z,973.54
2018-02-04T06:45:31.491Z,973.61
2018-02-04T06:46:31.404Z,973.63
2018-02-04T06:47:31.321Z,973.66
2018-02-04T06:48:31.243Z,973.67
2018-02-04T06:49:31.152Z,973.68
2018-02-04T06:50:31.062Z,973.67
2018-02-04T06:51:30.971Z,973.71
2018-02-04T06:52:30.886Z,973.73
2018-02-04T06:53:30.798Z,973.70
2018-02-04T06:54:30.721Z,973.75
2018-02-04T06:55:30.629Z,973.71
2018-02-04T06:56:30.538Z,973.74
2018-02-04T06:57:30.453Z,973.74
2018-02-04T06:58:30.363Z,973.77
2018-02-04T06:59:30.279Z,973.79
2018-02-04T07:00:30.198Z,973.74
2018-02-04T07:01:30.109Z,973.81
2018-02-04T07:02:30.021Z,973.80
2018-02-04T07:03:29.948Z,973.81
2018-02-04T07:04:29.847Z,973.85
2018-02-04T07:05:29.761Z,973.91
2018-02-04T07:06:29.673Z,973.89
2018-02-04T07:07:29.593Z,973.90
2018-02-04T07:08:29.502Z,973.91
2018-02-04T07:09:29.417Z,973.95
2018-02-04T07:10:29.337Z,973.91
2018-02-04T07:11:29.245Z,973.92
2018-02-04T07:12:29.158Z,974.00
2018-02-04T07:13:29.088Z,974.02
2018-02-04T07:14:28.984Z,974.12
2018-02-04T07:15:28.898Z,974.13
2018-02-04T07:16:28.813Z,974.17
2018-02-04T07:17:28.731Z,974.21
2018-02-04T07:18:28.642Z,974.25
2018-02-04T07:19:28.554Z,974.33
2018-02-04T07:20:28.469Z,974.29
2018-02-04T07:21:28.383Z,974.28
2018-02-04T07:22:28.302Z,974.29
2018-02-04T07:23:28.217Z,974.31
2018-02-04T07:24:28.122Z,974.29
2018-02-04T07:25:28.040Z,974.29
2018-02-04T07:26:28.013Z,974.32
2018-02-04T07:27:27.865Z,974.29
2018-02-04T07:28:27.782Z,974.35
2018-02-04T07:29:27.695Z,974.32
2018-02-04T07:30:27.609Z,974.33
2018-02-04T07:31:27.524Z,974.33
2018-02-04T07:32:27.436Z,974.37
2018-02-04T07:33:27.351Z,974.39
2018-02-04T07:34:27.310Z,974.41
2018-02-04T07:35:27.180Z,974.43
2018-02-04T07:36:27.097Z,974.46
2018-02-04T07:37:27.006Z,974.47
2018-02-04T07:38:26.918Z,974.48
2018-02-04T07:39:26.835Z,974.49
2018-02-04T07:40:26.751Z,974.44
2018-02-04T07:41:26.664Z,974.48
2018-02-04T07:42:26.576Z,974.44
2018-02-04T07:43:26.492Z,974.50
2018-02-04T07:44:26.408Z,974.50
2018-02-04T07:45:26.322Z,974.50
2018-02-04T07:46:26.236Z,974.47
2018-02-04T07:47:26.149Z,974.50
2018-02-04T07:48:26.060Z,974.55
2018-02-04T07:49:25.978Z,974.57
2018-02-04T07:50:25.891Z,974.58
2018-02-04T07:51:25.804Z,974.57
2018-02-04T07:52:25.717Z,974.58
2018-02-04T07:53:25.634Z,974.58
2018-02-04T07:54:25.547Z,974.61
2018-02-04T07:55:25.464Z,974.61
2018-02-04T07:56:25.378Z,974.67
2018-02-04T07:57:25.289Z,974.63
2018-02-04T07:58:25.269Z,974.68
2018-02-04T07:59:25.116Z,974.70
2018-02-04T08:00:25.036Z,974.72
2018-02-04T08:01:24.948Z,974.74
2018-02-04T08:02:24.893Z,974.75
2018-02-04T08:03:24.793Z,974.74
2018-02-04T08:04:24.692Z,974.73
2018-02-04T08:05:24.617Z,974.70
2018-02-04T08:06:24.519Z,974.72
2018-02-04T08:07:24.433Z,974.72
2018-02-04T08:08:24.349Z,974.76
2018-02-04T08:09:24.267Z,974.78
2018-02-04T08:10:24.182Z,974.74
2018-02-04T08:11:24.090Z,974.76
2018-02-04T08:12:24.004Z,974.76
2018-02-04T08:13:23.925Z,974.78
2018-02-04T08:14:23.844Z,974.83
2018-02-04T08:15:23.750Z,974.82
2018-02-04T08:16:23.665Z,974.83
2018-02-04T08:17:23.579Z,974.83
2018-02-04T08:18:23.496Z,974.84
2018-02-04T08:19:23.404Z,974.85
2018-02-04T08:20:23.318Z,974.85
2018-02-04T08:21:23.232Z,974.86
2018-02-04T08:22:23.151Z,974.88
2018-02-04T08:23:23.067Z,974.87
2018-02-04T08:24:22.975Z,974.90
2018-02-04T08:25:22.901Z,974.91
2018-02-04T08:26:22.806Z,974.92
2018-02-04T08:27:22.721Z,974.93
2018-02-04T08:28:22.634Z,974.94
2018-02-04T08:29:22.550Z,974.93
2018-02-04T08:30:22.461Z,974.97
2018-02-04T08:31:22.377Z,975.00
2018-02-04T08:32:22.290Z,975.03
2018-02-04T08:33:22.207Z,974.99
2018-02-04T08:34:22.121Z,975.02
2018-02-04T08:35:22.032Z,975.06
2018-02-04T08:36:21.948Z,975.06
2018-02-04T08:37:21.862Z,975.07
2018-02-04T08:38:21.785Z,975.11
2018-02-04T08:39:21.688Z,975.12
2018-02-04T08:40:21.605Z,975.13
2018-02-04T08:41:21.519Z,975.13
2018-02-04T08:42:21.432Z,975.17
2018-02-04T08:43:21.359Z,975.24
2018-02-04T08:44:21.263Z,975.23
2018-02-04T08:45:21.175Z,975.21
2018-02-04T08:46:21.123Z,975.24
2018-02-04T08:47:21.005Z,975.25
2018-02-04T08:48:20.919Z,975.23
2018-02-04T08:49:20.833Z,975.26
2018-02-04T08:50:20.753Z,975.26
2018-02-04T08:51:20.668Z,975.27
2018-02-04T08:52:20.579Z,975.30
2018-02-04T08:53:20.519Z,975.27
2018-02-04T08:54:20.404Z,975.29
2018-02-04T08:55:20.327Z,975.30
2018-02-04T08:56:20.236Z,975.29
2018-02-04T08:57:20.149Z,975.26
2018-02-04T08:58:20.063Z,975.26
2018-02-04T08:59:19.978Z,975.32
2018-02-04T09:00:19.896Z,975.27
2018-02-04T09:01:19.811Z,975.32
2018-02-04T09:02:19.720Z,975.34
2018-02-04T09:03:19.637Z,975.38
2018-02-04T09:04:19.549Z,975.39
2018-02-04T09:05:19.466Z,975.40
2018-02-04T09:06:19.381Z,975.41
2018-02-04T09:07:19.292Z,975.41
2018-02-04T09:08:19.214Z,975.41
2018-02-04T09:09:19.121Z,975.44
2018-02-04T09:10:19.037Z,975.43
2018-02-04T09:11:18.953Z,975.46
2018-02-04T09:12:18.868Z,975.46
2018-02-04T09:13:18.786Z,975.42
2018-02-04T09:14:18.694Z,975.43
2018-02-04T09:15:18.624Z,975.44
2018-02-04T09:16:18.523Z,975.45
2018-02-04T09:17:18.476Z,975.43
2018-02-04T09:18:18.355Z,975.44
2018-02-04T09:19:18.300Z,975.43
2018-02-04T09:20:18.181Z,975.43
2018-02-04T09:21:18.096Z,975.40
2018-02-04T09:22:18.007Z,975.43
2018-02-04T09:23:17.924Z,975.43
2018-02-04T09:24:17.843Z,975.44
2018-02-04T09:25:17.757Z,975.47
2018-02-04T09:26:17.667Z,975.47
2018-02-04T09:27:17.580Z,975.50
2018-02-04T09:28:17.498Z,975.45
2018-02-04T09:29:17.413Z,975.47
2018-02-04T09:30:17.322Z,975.47
2018-02-04T09:31:17.242Z,975.53
2018-02-04T09:32:17.153Z,975.55
2018-02-04T09:33:17.069Z,975.59
2018-02-04T09:34:16.982Z,975.60
2018-02-04T09:35:16.899Z,975.61
2018-02-04T09:36:16.837Z,975.69
2018-02-04T09:37:16.727Z,975.71
2018-02-04T09:38:16.642Z,975.73
2018-02-04T09:39:16.554Z,975.79
2018-02-04T09:40:16.472Z,975.75
2018-02-04T09:41:16.389Z,975.84
2018-02-04T09:42:16.300Z,975.81
2018-02-04T09:43:16.228Z,975.85
2018-02-04T09:44:16.178Z,975.85
2018-02-04T09:45:16.049Z,975.88
2018-02-04T09:46:15.962Z,975.89
2018-02-04T09:47:15.873Z,975.90
2018-02-04T09:48:15.790Z,975.85
2018-02-04T09:49:15.705Z,975.85
2018-02-04T09:50:15.621Z,975.87
2018-02-04T09:51:15.533Z,975.90
2018-02-04T09:52:15.450Z,975.89
2018-02-04T09:53:15.364Z,975.90
2018-02-04T09:54:15.294Z,975.93
2018-02-04T09:55:15.192Z,975.91
2018-02-04T09:56:15.108Z,975.93
2018-02-04T09:57:15.026Z,975.94
2018-02-04T09:58:14.941Z,975.92
2018-02-04T09:59:14.851Z,975.94
2018-02-04T10:00:14.768Z,975.96
2018-02-04T10:01:14.682Z,975.93
2018-02-04T10:02:14.597Z,975.96
2018-02-04T10:03:14.515Z,975.94
2018-02-04T10:04:14.429Z,975.99
2018-02-04T10:05:14.344Z,975.98
2018-02-04T10:06:14.260Z,975.99
2018-02-04T10:07:14.179Z,976.00
2018-02-04T10:08:14.088Z,976.01
2018-02-04T10:09:14.002Z,976.01
2018-02-04T10:10:13.919Z,976.01
2018-02-04T10:11:13.868Z,976.04
2018-02-04T10:12:13.755Z,976.02
2018-02-04T10:13:13.669Z,976.03
2018-02-04T10:14:13.581Z,976.04
2018-02-04T10:15:13.491Z,976.05
2018-02-04T10:16:13.406Z,976.08
2018-02-04T10:17:13.323Z,976.08
2018-02-04T10:18:13.237Z,976.11
2018-02-04T10:19:13.162Z,976.10
2018-02-04T10:20:13.069Z,976.07
2018-02-04T10:21:12.982Z,976.08
2018-02-04T10:22:12.919Z,976.12
2018-02-04T10:23:12.813Z,976.09
2018-02-04T10:24:12.728Z,976.10
2018-02-04T10:25:12.646Z,976.08
2018-02-04T10:26:12.559Z,976.09
2018-02-04T10:27:12.496Z,976.11
2018-02-04T10:28:12.389Z,976.16
2018-02-04T10:29:12.306Z,976.12
2018-02-04T10:30:12.218Z,976.14
2018-02-04T10:31:12.151Z,976.15
2018-02-04T10:32:12.051Z,976.15
2018-02-04T10:33:11.968Z,976.11
2018-02-04T10:34:11.883Z,976.17
2018-02-04T10:35:11.798Z,976.16
2018-02-04T10:36:11.716Z,976.17
2018-02-04T10:37:11.631Z,976.22
2018-02-04T10:38:11.558Z,976.22
2018-02-04T10:39:11.461Z,976.24
2018-02-04T10:40:11.400Z,976.26
2018-02-04T10:41:11.296Z,976.27
2018-02-04T10:42:11.204Z,976.33
2018-02-04T10:43:11.122Z,976.34
2018-02-04T10:44:11.038Z,976.34
2018-02-04T10:45:10.954Z,976.35
2018-02-04T10:46:10.869Z,976.39
2018-02-04T10:47:10.787Z,976.35
2018-02-04T10:48:10.701Z,976.34
2018-02-04T10:49:10.634Z,976.33
2018-02-04T10:50:10.531Z,976.33
2018-02-04T10:51:10.522Z,976.35
2018-02-04T10:52:10.363Z,976.35
2018-02-04T10:53:10.277Z,976.36
2018-02-04T10:54:10.192Z,976.38
2018-02-04T10:55:10.107Z,976.37
2018-02-04T10:56:10.024Z,976.39
2018-02-04T10:57:09.945Z,976.43
2018-02-04T10:58:09.876Z,976.43
2018-02-04T10:59:09.794Z,976.39
2018-02-04T11:00:09.697Z,976.42
2018-02-04T11:01:09.606Z,976.42
2018-02-04T11:02:09.563Z,976.42
2018-02-04T11:03:09.436Z,976.40
2018-02-04T11:04:09.351Z,976.42
2018-02-04T11:05:09.266Z,976.41
2018-02-04T11:06:09.208Z,976.46
2018-02-04T11:07:09.124Z,976.44
2018-02-04T11:08:09.038Z,976.45
2018-02-04T11:09:08.931Z,976.45
2018-02-04T11:10:08.848Z,976.42
2018-02-04T11:11:08.762Z,976.43
2018-02-04T11:12:08.680Z,976.41
2018-02-04T11:13:08.594Z,976.47
2018-02-04T11:14:08.512Z,976.42
2018-02-04T11:15:08.432Z,976.42
2018-02-04T11:16:08.345Z,976.41
2018-02-04T11:17:08.260Z,976.44
2018-02-04T11:18:08.228Z,976.45
2018-02-04T11:19:08.091Z,976.46
2018-02-04T11:20:08.010Z,976.48
2018-02-04T11:21:07.924Z,976.42
2018-02-04T11:22:07.842Z,976.46
2018-02-04T11:23:07.765Z,976.46
2018-02-04T11:24:07.673Z,976.48
2018-02-04T11:25:07.590Z,976.52
2018-02-04T11:26:07.517Z,976.49
2018-02-04T11:27:07.419Z,976.52
2018-02-04T11:28:07.336Z,976.53
2018-02-04T11:29:07.248Z,976.53
2018-02-04T11:30:07.168Z,976.56
2018-02-04T11:31:07.079Z,976.49
2018-02-04T11:32:06.999Z,976.53
2018-02-04T11:33:06.912Z,976.56
2018-02-04T11:34:06.831Z,976.57
2018-02-04T11:35:06.757Z,976.57
2018-02-04T11:36:06.663Z,976.56
2018-02-04T11:37:06.601Z,976.55
2018-02-04T11:38:06.492Z,976.58
2018-02-04T11:39:06.419Z,976.57
2018-02-04T11:40:06.324Z,976.60
2018-02-04T11:41:06.248Z,976.62
2018-02-04T11:42:06.155Z,976.61
2018-02-04T11:43:06.073Z,976.61
2018-02-04T11:44:05.999Z,976.61
2018-02-04T11:45:05.908Z,976.62
2018-02-04T11:46:05.820Z,976.64
2018-02-04T11:47:05.736Z,976.64
2018-02-04T11:48:05.659Z,976.64
2018-02-04T11:49:05.569Z,976.67
2018-02-04T11:50:05.483Z,976.66
2018-02-04T11:51:05.398Z,976.63
2018-02-04T11:52:05.329Z,976.65
2018-02-04T11:53:05.245Z,976.66
2018-02-04T11:54:05.146Z,976.63
2018-02-04T11:55:05.062Z,976.66
2018-02-04T11:56:04.978Z,976.66
2018-02-04T11:57:04.895Z,976.67
2018-02-04T11:58:04.809Z,976.64
2018-02-04T11:59:04.724Z,976.72
2018-02-04T12:00:04.653Z,976.65
2018-02-04T12:01:04.560Z,976.70
2018-02-04T12:02:04.473Z,976.70
2018-02-04T12:03:04.387Z,976.70
2018-02-04T12:04:04.309Z,976.68
2018-02-04T12:05:04.229Z,976.72
2018-02-04T12:06:04.138Z,976.78
2018-02-04T12:07:04.058Z,976.73
2018-02-04T12:08:04.020Z,976.78
2018-02-04T12:09:03.908Z,976.80
2018-02-04T12:10:03.803Z,976.79
2018-02-04T12:11:03.725Z,976.81
2018-02-04T12:12:03.636Z,976.82
2018-02-04T12:13:03.553Z,976.81
2018-02-04T12:14:03.465Z,976.80
2018-02-04T12:15:03.382Z,976.81
2018-02-04T12:16:03.298Z,976.78
2018-02-04T12:17:03.216Z,976.82
2018-02-04T12:18:03.129Z,976.84
2018-02-04T12:19:03.048Z,976.86
2018-02-04T12:20:02.968Z,976.86
2018-02-04T12:21:02.880Z,976.86
2018-02-04T12:22:02.794Z,976.81
2018-02-04T12:23:02.711Z,976.89
2018-02-04T12:24:02.628Z,976.86
2018-02-04T12:25:02.545Z,976.88
2018-02-04T12:26:02.458Z,976.81
2018-02-04T12:27:02.379Z,976.86